Time;durP1;ratioP1;P1;durP2;ratioP2;P2;SDS_P1;SDS_P2;PMS_P1;PMS_P2;Temp;Humidity;BMP_temperature;BMP_pressure;BME280_temperature;BME280_humidity;BME280_pressure;Samples;Min_cycle;Max_cycle;Signal;HPM_P1;HPM_P2
2022/08/26 00:00:55;;;;;;;15.15;10.35;;;;;;;23.50;66.26;100640.47;5109122;27;20207;-71
2022/08/26 00:03:23;;;;;;;13.38;10.40;;;;;;;23.49;66.40;100646.94;5113418;27;20211;-72
2022/08/26 00:05:50;;;;;;;15.82;9.93;;;;;;;23.47;66.27;100646.28;5110745;28;20199;-72
2022/08/26 00:08:19;;;;;;;9.93;8.98;;;;;;;23.45;66.32;100648.34;5098827;28;20222;-72
2022/08/26 00:10:45;;;;;;;12.75;9.55;;;;;;;23.44;66.65;100643.09;5090329;28;20200;-71
2022/08/26 00:13:12;;;;;;;15.73;9.80;;;;;;;23.42;66.72;100645.16;5091260;28;20577;-71
2022/08/26 00:15:40;;;;;;;15.70;9.55;;;;;;;23.41;66.90;100641.59;5091922;28;20211;-72
2022/08/26 00:18:06;;;;;;;13.93;9.77;;;;;;;23.42;66.80;100647.88;5085974;28;20238;-71
2022/08/26 00:20:35;;;;;;;17.52;10.27;;;;;;;23.39;66.77;100650.94;5091731;28;20203;-72
2022/08/26 00:23:02;;;;;;;11.23;8.93;;;;;;;23.38;66.96;100647.38;5094914;28;20211;-73
2022/08/26 00:25:29;;;;;;;15.43;9.35;;;;;;;23.38;67.03;100636.50;5104450;28;20208;-72
2022/08/26 00:27:56;;;;;;;10.40;9.30;;;;;;;23.38;67.09;100646.53;5112719;28;20216;-72
2022/08/26 00:30:25;;;;;;;11.10;9.13;;;;;;;23.38;66.91;100641.09;5113091;28;20208;-73
2022/08/26 00:32:52;;;;;;;15.02;9.68;;;;;;;23.35;67.21;100639.56;5117319;28;20215;-72
2022/08/26 00:35:19;;;;;;;10.18;9.20;;;;;;;23.33;67.06;100633.47;5105606;28;20768;-72
2022/08/26 00:37:47;;;;;;;13.55;9.13;;;;;;;23.32;67.18;100634.50;5085198;28;20220;-75
2022/08/26 00:40:17;;;;;;;12.98;8.68;;;;;;;23.31;67.01;100635.53;5091768;28;20203;-74
2022/08/26 00:42:44;;;;;;;12.40;8.68;;;;;;;23.30;66.98;100633.81;5088473;28;20731;-72
2022/08/26 00:45:11;;;;;;;11.13;9.40;;;;;;;23.31;67.27;100637.38;5083833;28;20261;-72
2022/08/26 00:47:43;;;;;;;14.23;8.93;;;;;;;23.31;66.85;100638.25;5086086;28;20759;-72
2022/08/26 00:50:13;;;;;;;11.77;8.75;;;;;;;23.30;66.89;100628.38;5093119;28;20196;-71
2022/08/26 00:52:40;;;;;;;11.32;9.30;;;;;;;23.29;67.10;100625.88;5087307;28;20208;-71
2022/08/26 00:55:13;;;;;;;11.38;9.00;;;;;;;23.28;67.34;100626.91;5091234;28;20207;-71
2022/08/26 00:57:40;;;;;;;13.93;10.05;;;;;;;23.26;67.32;100637.09;5082746;28;20319;-72
2022/08/26 01:00:11;;;;;;;14.63;9.68;;;;;;;23.23;67.51;100632.03;5092454;28;20208;-72
2022/08/26 01:02:38;;;;;;;12.60;9.93;;;;;;;23.20;67.50;100635.94;5085837;28;20206;-71
2022/08/26 01:05:06;;;;;;;11.98;9.60;;;;;;;23.18;67.47;100632.56;5101667;28;20203;-71
2022/08/26 01:07:34;;;;;;;13.57;9.77;;;;;;;23.14;67.23;100637.50;5089828;28;20223;-74
2022/08/26 01:10:04;;;;;;;10.60;9.35;;;;;;;23.12;67.53;100634.09;5091093;28;20204;-71
2022/08/26 01:12:38;;;;;;;11.85;9.10;;;;;;;23.10;67.74;100635.34;5084115;28;20211;-71
2022/08/26 01:15:06;;;;;;;11.60;10.27;;;;;;;23.09;67.70;100634.50;5088687;28;20204;-72
2022/08/26 01:17:33;;;;;;;17.08;9.70;;;;;;;23.07;67.86;100635.69;5092442;28;20588;-71
2022/08/26 01:20:06;;;;;;;11.85;9.35;;;;;;;23.05;67.85;100629.59;5095358;28;20689;-71
2022/08/26 01:22:44;;;;;;;13.07;9.07;;;;;;;23.03;68.16;100629.75;5096345;28;20277;-71
2022/08/26 01:25:11;;;;;;;15.68;9.73;;;;;;;23.00;68.06;100621.97;5088994;28;20306;-71
2022/08/26 01:27:38;;;;;;;20.17;9.73;;;;;;;22.96;68.02;100633.34;5085153;28;20220;-72
2022/08/26 01:30:06;;;;;;;12.32;9.48;;;;;;;22.91;68.29;100633.06;5091448;28;20207;-71
2022/08/26 01:32:35;;;;;;;12.48;9.85;;;;;;;22.84;68.44;100631.03;5089371;28;20214;-72
2022/08/26 01:35:01;;;;;;;11.73;9.75;;;;;;;22.81;68.62;100623.25;5096737;28;20203;-71
2022/08/26 01:37:35;;;;;;;12.80;9.27;;;;;;;22.80;68.66;100621.56;5089376;28;20598;-72
2022/08/26 01:40:05;;;;;;;16.45;10.27;;;;;;;22.79;68.89;100621.72;5094399;28;20203;-71
2022/08/26 01:42:33;;;;;;;11.23;9.40;;;;;;;22.79;68.89;100622.56;5094517;28;20208;-71
2022/08/26 01:45:04;;;;;;;10.65;8.60;;;;;;;22.79;68.96;100617.13;5083733;28;20684;-72
2022/08/26 01:47:33;;;;;;;13.35;9.55;;;;;;;22.80;69.04;100629.69;5089337;28;20246;-73
2022/08/26 01:50:02;;;;;;;16.52;9.65;;;;;;;22.80;69.05;100628.84;5090111;28;20261;-72
2022/08/26 01:52:32;;;;;;;13.55;9.02;;;;;;;22.80;69.19;100629.69;5089663;28;20203;-72
2022/08/26 01:55:00;;;;;;;11.30;8.63;;;;;;;22.79;68.96;100628.00;5092735;28;20666;-72
2022/08/26 01:57:28;;;;;;;14.82;9.70;;;;;;;22.78;68.83;100622.75;5092037;28;20600;-72
2022/08/26 01:59:58;;;;;;;12.60;9.15;;;;;;;22.76;68.96;100627.47;5098155;28;20215;-71
2022/08/26 02:02:26;;;;;;;14.35;10.45;;;;;;;22.74;68.88;100624.13;5095368;28;20212;-72
2022/08/26 02:04:57;;;;;;;13.15;10.02;;;;;;;22.70;68.68;100629.03;5089607;28;20214;-72
2022/08/26 02:07:24;;;;;;;15.82;10.32;;;;;;;22.65;68.84;100628.72;5090571;28;20220;-71
2022/08/26 02:09:50;;;;;;;15.60;10.85;;;;;;;22.60;69.08;100628.38;5089542;28;20733;-71
2022/08/26 02:12:19;;;;;;;14.80;10.60;;;;;;;22.55;69.16;100628.09;5095394;28;20289;-72
2022/08/26 02:14:52;;;;;;;12.07;8.90;;;;;;;22.50;69.45;100638.63;5093225;28;20212;-71
2022/08/26 02:17:23;;;;;;;11.18;9.90;;;;;;;22.47;69.77;100628.09;5093238;28;20598;-71
2022/08/26 02:19:50;;;;;;;13.50;9.80;;;;;;;22.43;69.73;100624.03;5089292;28;20207;-72
2022/08/26 02:22:20;;;;;;;11.45;10.25;;;;;;;22.40;70.00;100625.22;5095117;28;20200;-71
2022/08/26 02:24:50;;;;;;;14.63;9.85;;;;;;;22.36;70.19;100620.34;5089112;28;20202;-73
2022/08/26 02:27:19;;;;;;;13.25;9.70;;;;;;;22.31;70.40;100623.56;5096631;28;20216;-72
2022/08/26 02:29:50;;;;;;;13.57;9.80;;;;;;;22.28;70.53;100628.50;5090899;28;20364;-71
2022/08/26 02:32:16;;;;;;;19.15;9.63;;;;;;;22.24;70.63;100628.00;5080959;28;20211;-73
2022/08/26 02:34:43;;;;;;;12.38;9.77;;;;;;;22.23;70.92;100620.03;5095688;28;20235;-72
2022/08/26 02:37:11;;;;;;;18.13;9.90;;;;;;;22.22;71.01;100623.75;5093444;28;20231;-71
2022/08/26 02:39:40;;;;;;;13.35;9.75;;;;;;;22.21;70.94;100624.81;5090696;28;20235;-72
2022/08/26 02:42:07;;;;;;;18.23;10.07;;;;;;;22.21;70.94;100627.50;5100691;28;20790;-71
2022/08/26 02:44:34;;;;;;;13.65;9.23;;;;;;;22.21;70.96;100630.22;5090314;28;20215;-72
2022/08/26 02:47:02;;;;;;;17.50;10.35;;;;;;;22.21;70.99;100631.06;5088593;28;20230;-72
2022/08/26 02:49:29;;;;;;;12.52;10.48;;;;;;;22.21;70.98;100631.06;5089696;28;20201;-71
2022/08/26 02:51:56;;;;;;;11.93;9.75;;;;;;;22.20;71.11;100623.09;5088783;28;20208;-73
2022/08/26 02:54:23;;;;;;;12.15;9.95;;;;;;;22.14;70.67;100617.34;5087842;28;20669;-72
2022/08/26 02:56:50;;;;;;;15.73;10.70;;;;;;;22.05;70.41;100612.94;5087006;28;20211;-71
2022/08/26 02:59:17;;;;;;;12.45;10.25;;;;;;;21.96;70.71;100616.66;5094926;28;20216;-72
2022/08/26 03:01:46;;;;;;;13.77;9.75;;;;;;;21.89;71.21;100615.63;5093306;28;20230;-72
2022/08/26 03:04:13;;;;;;;16.75;10.52;;;;;;;21.85;71.38;100616.19;5086538;28;20200;-71
2022/08/26 03:06:40;;;;;;;11.27;10.10;;;;;;;21.82;71.61;100611.94;5088819;28;20210;-73
2022/08/26 03:09:07;;;;;;;16.23;10.73;;;;;;;21.82;71.87;100609.22;5087995;28;20207;-71
2022/08/26 03:11:35;;;;;;;12.88;10.98;;;;;;;21.81;71.96;100602.09;5083244;28;20208;-72
2022/08/26 03:14:02;;;;;;;14.73;10.70;;;;;;;21.79;72.26;100601.44;5091699;28;20210;-72
2022/08/26 03:16:32;;;;;;;12.13;10.13;;;;;;;21.78;72.32;100597.88;5088241;28;20203;-71
2022/08/26 03:18:59;;;;;;;15.82;10.88;;;;;;;21.77;72.57;100596.19;5087956;28;20259;-71
2022/08/26 03:21:27;;;;;;;13.50;10.02;;;;;;;21.77;73.02;100593.47;5092840;28;20200;-74
2022/08/26 03:23:53;;;;;;;13.52;10.15;;;;;;;21.78;73.21;100595.16;5088023;28;20211;-71
2022/08/26 03:26:20;;;;;;;18.38;10.02;;;;;;;21.78;73.56;100597.88;5088959;28;20204;-73
2022/08/26 03:31:31;;;;;;;16.23;11.20;;;;;;;21.74;73.96;100587.53;5094177;28;20218;-71
2022/08/26 03:33:58;;;;;;;16.35;11.55;;;;;;;21.72;73.94;100595.81;5091974;28;20202;-71
2022/08/26 03:36:27;;;;;;;18.30;10.52;;;;;;;21.72;74.05;100586.84;5090504;28;20219;-71
2022/08/26 03:38:53;;;;;;;21.55;11.90;;;;;;;21.70;74.14;100591.59;5087826;28;20239;-71
2022/08/26 03:41:20;;;;;;;14.05;11.10;;;;;;;21.68;74.28;100589.03;5093686;28;20212;-71
2022/08/26 03:43:49;;;;;;;14.50;11.25;;;;;;;21.66;74.42;100585.69;5091589;28;20212;-75
2022/08/26 03:46:18;;;;;;;14.82;11.40;;;;;;;21.64;74.57;100584.16;5089156;28;20208;-71
2022/08/26 03:48:44;;;;;;;15.20;12.77;;;;;;;21.60;74.64;100585.50;5087665;28;20736;-71
2022/08/26 03:51:12;;;;;;;18.30;11.93;;;;;;;21.58;74.55;100582.97;5086516;28;20681;-72
2022/08/26 03:53:40;;;;;;;15.70;12.40;;;;;;;21.57;75.06;100580.44;5094394;28;20194;-71
2022/08/26 03:56:06;;;;;;;21.17;12.93;;;;;;;21.58;75.27;100579.41;5090898;28;20204;-70
2022/08/26 03:58:33;;;;;;;12.85;11.38;;;;;;;21.56;75.24;100581.44;5094884;28;20227;-72
2022/08/26 04:01:00;;;;;;;20.10;12.80;;;;;;;21.56;75.24;100590.41;5095368;28;20200;-70
2022/08/26 04:06:11;;;;;;;14.00;11.50;;;;;;;21.59;75.27;100583.81;5095200;28;20269;-72
2022/08/26 04:08:40;;;;;;;13.23;11.88;;;;;;;21.59;75.17;100586.53;5098213;28;20220;-72
2022/08/26 04:11:07;;;;;;;13.60;11.75;;;;;;;21.59;75.27;100578.41;5095456;28;20200;-72
2022/08/26 04:13:34;;;;;;;15.40;11.10;;;;;;;21.58;75.37;100579.41;5087884;28;20681;-72
2022/08/26 04:16:00;;;;;;;14.80;10.98;;;;;;;21.58;75.26;100580.25;5091837;28;20200;-71
2022/08/26 04:18:30;;;;;;;11.95;10.40;;;;;;;21.58;75.29;100582.13;5099245;28;20229;-72
2022/08/26 04:20:56;;;;;;;18.33;10.93;;;;;;;21.56;75.26;100578.72;5098956;28;20199;-71
2022/08/26 04:23:23;;;;;;;14.25;10.95;;;;;;;21.56;75.45;100581.44;5095325;28;20208;-72
2022/08/26 04:25:52;;;;;;;18.27;12.07;;;;;;;21.56;75.35;100584.16;5102143;28;20712;-73
2022/08/26 04:28:21;;;;;;;17.40;12.10;;;;;;;21.54;75.44;100588.88;5102565;28;20248;-71
2022/08/26 04:30:48;;;;;;;19.55;11.60;;;;;;;21.53;75.68;100588.03;5101298;28;20233;-72
2022/08/26 04:33:14;;;;;;;18.73;12.23;;;;;;;21.53;75.74;100588.03;5100899;28;20810;-72
2022/08/26 04:35:42;;;;;;;17.70;10.75;;;;;;;21.54;75.72;100592.44;5092956;28;20212;-74
2022/08/26 04:38:09;;;;;;;18.52;11.32;;;;;;;21.55;75.87;100582.44;5096298;28;20231;-73
2022/08/26 04:40:35;;;;;;;15.60;11.32;;;;;;;21.57;75.84;100583.13;5099253;28;20203;-72
2022/08/26 04:43:04;;;;;;;18.45;11.15;;;;;;;21.59;75.65;100581.09;5093697;28;20211;-72
2022/08/26 04:45:31;;;;;;;24.40;11.13;;;;;;;21.59;75.67;100591.94;5101581;28;20750;-73
2022/08/26 04:47:57;;;;;;;19.00;11.95;;;;;;;21.59;75.51;100592.78;5094410;28;20305;-70
2022/08/26 04:50:25;;;;;;;20.15;11.38;;;;;;;21.60;75.59;100588.22;5096781;28;20660;-72
2022/08/26 04:52:52;;;;;;;16.40;11.80;;;;;;;21.58;75.59;100588.38;5093391;28;20273;-74
2022/08/26 04:55:19;;;;;;;19.90;10.52;;;;;;;21.57;75.54;100591.25;5094652;28;20298;-72
2022/08/26 04:57:45;;;;;;;18.27;11.73;;;;;;;21.55;75.49;100591.44;5093121;28;20781;-73
2022/08/26 05:00:14;;;;;;;19.55;10.27;;;;;;;21.55;75.63;100586.00;5091629;28;20219;-71
2022/08/26 05:02:40;;;;;;;14.00;11.45;;;;;;;21.56;75.78;100593.13;5095899;28;20586;-72
2022/08/26 05:05:08;;;;;;;20.75;11.15;;;;;;;21.58;75.56;100590.25;5096278;28;20207;-74
2022/08/26 05:07:35;;;;;;;21.92;12.02;;;;;;;21.58;75.53;100590.25;5092005;28;20227;-71
2022/08/26 05:10:02;;;;;;;16.88;10.75;;;;;;;21.58;75.38;100592.97;5100005;28;20208;-72
2022/08/26 05:12:29;;;;;;;19.50;10.65;;;;;;;21.60;75.58;100593.63;5100376;28;20207;-71
2022/08/26 05:14:56;;;;;;;22.15;11.52;;;;;;;21.59;75.38;100600.06;5095356;28;20200;-71
2022/08/26 05:17:25;;;;;;;16.75;11.85;;;;;;;21.61;75.39;100593.47;5093138;28;20224;-71
2022/08/26 05:19:52;;;;;;;20.38;11.90;;;;;;;21.61;75.41;100592.63;5089220;28;20251;-70
2022/08/26 05:22:19;;;;;;;20.85;12.70;;;;;;;21.59;75.55;100600.06;5093491;28;20203;-70
2022/08/26 05:24:46;;;;;;;16.02;12.18;;;;;;;21.55;75.55;100594.13;5087637;28;20714;-71
2022/08/26 05:27:13;;;;;;;15.93;11.68;;;;;;;21.53;75.73;100590.75;5092462;28;20220;-71
2022/08/26 05:29:40;;;;;;;15.20;12.23;;;;;;;21.51;75.83;100595.50;5096624;28;20207;-71
2022/08/26 05:32:07;;;;;;;19.63;12.30;;;;;;;21.49;76.04;100605.69;5092365;28;20200;-71
2022/08/26 05:34:36;;;;;;;19.13;12.38;;;;;;;21.46;76.04;100606.84;5085080;28;20201;-70
2022/08/26 05:37:03;;;;;;;24.67;12.10;;;;;;;21.45;76.32;100610.59;5086409;28;20224;-72
2022/08/26 05:39:31;;;;;;;21.23;11.43;;;;;;;21.45;76.36;100607.03;5090289;28;20231;-71
2022/08/26 05:41:58;;;;;;;16.98;12.35;;;;;;;21.44;76.41;100608.03;5096229;28;20207;-71
2022/08/26 05:44:24;;;;;;;19.13;11.18;;;;;;;21.44;76.92;100591.78;5089725;28;20207;-70
2022/08/26 05:46:51;;;;;;;24.90;12.05;;;;;;;21.45;76.67;100591.63;5090238;28;20208;-71
2022/08/26 05:49:19;;;;;;;27.70;13.15;;;;;;;21.46;76.82;100585.19;5091760;28;20619;-70
2022/08/26 05:51:47;;;;;;;30.85;12.88;;;;;;;21.49;76.90;100594.84;5091803;28;20317;-72
2022/08/26 05:54:14;;;;;;;16.83;12.80;;;;;;;21.52;76.97;100601.75;5089630;28;20218;-72
2022/08/26 05:56:42;;;;;;;16.83;12.13;;;;;;;21.54;76.95;100599.72;5087254;28;20208;-72
2022/08/26 05:59:13;;;;;;;21.13;13.15;;;;;;;21.53;77.00;100600.75;5090942;28;20238;-73
2022/08/26 06:01:41;;;;;;;19.63;12.25;;;;;;;21.54;77.01;100603.28;5089021;28;20293;-73
2022/08/26 06:04:07;;;;;;;23.02;13.23;;;;;;;21.55;77.20;100615.81;5089524;28;20661;-73
2022/08/26 06:06:40;;;;;;;19.88;12.38;;;;;;;21.55;77.08;100617.69;5089607;28;20597;-73
2022/08/26 06:09:09;;;;;;;18.27;11.95;;;;;;;21.54;77.40;100614.13;5089260;28;20253;-73
2022/08/26 06:11:36;;;;;;;23.10;12.68;;;;;;;21.54;77.40;100607.84;5091541;28;20278;-73
2022/08/26 06:14:04;;;;;;;16.75;12.68;;;;;;;21.55;77.61;100607.69;5088515;28;20430;-73
2022/08/26 06:16:33;;;;;;;19.20;12.27;;;;;;;21.55;77.43;100606.84;5091687;28;20228;-72
2022/08/26 06:19:01;;;;;;;17.70;13.00;;;;;;;21.54;77.53;100613.28;5088606;28;20224;-74
2022/08/26 06:21:30;;;;;;;19.55;12.65;;;;;;;21.53;77.77;100611.59;5090668;28;20213;-74
2022/08/26 06:26:48;;;;;;;19.80;12.98;;;;;;;21.52;77.81;100601.75;5088749;28;20209;-73
2022/08/26 06:29:16;;;;;;;15.38;12.45;;;;;;;21.51;77.81;100613.59;5091047;28;20208;-73
2022/08/26 06:31:42;;;;;;;22.95;12.68;;;;;;;21.48;77.84;100610.25;5089655;28;20228;-73
2022/08/26 06:34:09;;;;;;;17.70;12.15;;;;;;;21.47;78.15;100603.13;5088883;28;20832;-72
2022/08/26 06:36:36;;;;;;;15.30;12.57;;;;;;;21.45;78.08;100605.16;5089606;28;20298;-73
2022/08/26 06:39:06;;;;;;;21.67;13.13;;;;;;;21.43;78.31;100609.91;5091887;28;20224;-73
2022/08/26 06:41:34;;;;;;;21.75;12.85;;;;;;;21.43;78.59;100614.47;5090207;28;20208;-73
2022/08/26 06:44:03;;;;;;;17.00;12.27;;;;;;;21.42;78.53;100610.91;5088104;28;20212;-73
2022/08/26 06:46:30;;;;;;;19.77;12.73;;;;;;;21.42;78.65;100610.06;5086045;28;20204;-73
2022/08/26 06:48:57;;;;;;;20.35;11.55;;;;;;;21.42;78.76;100616.31;5088332;28;20207;-70
2022/08/26 06:51:26;;;;;;;20.15;13.38;;;;;;;21.42;79.06;100608.19;5086772;28;20249;-73
2022/08/26 06:53:54;;;;;;;18.13;12.63;;;;;;;21.43;79.06;100601.78;5088699;28;20207;-72
2022/08/26 06:56:23;;;;;;;23.02;12.00;;;;;;;21.43;79.30;100601.78;5088682;28;20200;-73
2022/08/26 06:58:50;;;;;;;20.90;12.23;;;;;;;21.44;79.20;100610.75;5088012;28;20243;-73
2022/08/26 07:01:21;;;;;;;24.13;12.07;;;;;;;21.45;79.36;100616.00;5088770;28;20790;-72
2022/08/26 07:03:50;;;;;;;22.33;12.77;;;;;;;21.48;79.82;100609.41;5087402;28;20203;-72
2022/08/26 07:06:18;;;;;;;26.25;13.65;;;;;;;21.51;79.69;100608.19;5088368;28;20203;-73
2022/08/26 07:08:44;;;;;;;22.27;12.50;;;;;;;21.52;79.60;100612.59;5088331;28;20293;-72
2022/08/26 07:11:11;;;;;;;21.13;12.43;;;;;;;21.54;79.69;100606.00;5088417;28;20291;-73
2022/08/26 07:13:38;;;;;;;20.48;13.02;;;;;;;21.58;79.78;100603.81;5088835;28;20928;-73
2022/08/26 07:16:06;;;;;;;25.90;13.30;;;;;;;21.62;79.77;100600.59;5088494;28;20763;-73
2022/08/26 07:18:35;;;;;;;18.42;11.68;;;;;;;21.66;80.02;100595.69;5087832;28;20588;-72
2022/08/26 07:21:02;;;;;;;27.02;12.60;;;;;;;21.69;80.14;100604.28;5088656;28;20231;-73
2022/08/26 07:23:29;;;;;;;26.58;12.35;;;;;;;21.74;80.19;100607.34;5088744;28;20408;-72
2022/08/26 07:25:55;;;;;;;39.85;14.07;;;;;;;21.79;80.23;100606.84;5088986;28;20239;-73
2022/08/26 07:28:22;;;;;;;64.78;16.58;;;;;;;21.83;80.41;100608.22;5088058;28;20310;-73
2022/08/26 07:30:49;;;;;;;85.53;21.10;;;;;;;21.88;80.42;100608.53;5092078;28;20212;-73
2022/08/26 07:33:16;;;;;;;46.65;13.43;;;;;;;21.93;80.67;100606.16;5087256;28;20206;-73
2022/08/26 07:35:44;;;;;;;42.65;14.65;;;;;;;21.97;80.88;100615.66;5087582;28;20219;-73
2022/08/26 07:38:11;;;;;;;16.58;12.10;;;;;;;22.03;81.03;100620.44;5091455;28;20310;-73
2022/08/26 07:40:39;;;;;;;16.80;11.43;;;;;;;22.06;81.19;100613.78;5088281;28;20656;-73
2022/08/26 07:43:06;;;;;;;18.73;11.80;;;;;;;22.10;81.54;100618.69;5089324;28;20234;-72
2022/08/26 07:45:33;;;;;;;18.92;12.20;;;;;;;22.15;81.73;100624.47;5089906;28;20192;-73
2022/08/26 07:47:59;;;;;;;21.02;12.02;;;;;;;22.21;81.91;100627.50;5084692;28;20232;-74
2022/08/26 07:50:26;;;;;;;18.60;12.30;;;;;;;22.23;82.09;100630.88;5091442;28;20213;-74
2022/08/26 07:52:55;;;;;;;17.55;12.90;;;;;;;22.26;82.18;100633.25;5094224;28;20237;-74
2022/08/26 07:55:22;;;;;;;20.30;12.52;;;;;;;22.29;82.30;100635.63;5097418;28;20215;-73
2022/08/26 07:57:49;;;;;;;20.73;12.60;;;;;;;22.32;82.23;100635.28;5096191;28;20230;-73
2022/08/26 08:00:17;;;;;;;20.65;13.13;;;;;;;22.36;82.30;100628.50;5096138;28;20226;-73
2022/08/26 08:02:44;;;;;;;23.42;12.45;;;;;;;22.39;82.33;100628.97;5092782;28;20208;-73
2022/08/26 08:05:11;;;;;;;15.00;12.23;;;;;;;22.42;82.33;100635.91;5095369;28;20672;-74
2022/08/26 08:07:38;;;;;;;18.52;11.77;;;;;;;22.44;82.07;100634.72;5097609;28;20637;-73
2022/08/26 08:10:08;;;;;;;16.60;11.88;;;;;;;22.49;81.73;100634.22;5097265;28;20286;-74
2022/08/26 08:12:34;;;;;;;33.58;13.68;;;;;;;22.51;81.31;100641.16;5097295;28;20212;-74
2022/08/26 08:15:01;;;;;;;32.22;12.85;;;;;;;22.54;80.74;100644.53;5092892;28;20201;-73
2022/08/26 08:17:28;;;;;;;26.25;11.00;;;;;;;22.55;80.06;100646.25;5092864;28;20251;-72
2022/08/26 08:19:54;;;;;;;13.07;9.93;;;;;;;22.56;79.25;100645.22;5093707;28;20318;-73
2022/08/26 08:22:22;;;;;;;13.65;8.88;;;;;;;22.57;78.80;100633.34;5103914;28;20209;-74
2022/08/26 08:24:49;;;;;;;14.77;9.77;;;;;;;22.59;78.50;100639.41;5099373;28;20199;-72
2022/08/26 08:27:17;;;;;;;15.57;8.68;;;;;;;22.63;78.03;100635.34;5094638;28;20776;-72
2022/08/26 08:29:45;;;;;;;9.98;8.40;;;;;;;22.69;77.70;100634.66;5100407;28;20242;-73
2022/08/26 08:32:12;;;;;;;17.52;9.63;;;;;;;22.76;77.78;100633.75;5097824;28;20219;-73
2022/08/26 08:34:39;;;;;;;16.90;9.02;;;;;;;22.87;77.83;100629.00;5093463;28;20399;-74
2022/08/26 08:37:06;;;;;;;16.55;8.13;;;;;;;23.01;77.88;100630.97;5094907;28;20598;-73
2022/08/26 08:39:33;;;;;;;12.30;9.10;;;;;;;23.16;77.43;100634.59;5095460;28;20232;-73
2022/08/26 08:42:18;;;;;;;13.93;9.18;;;;;;;23.31;76.76;100626.53;5094801;28;20212;-73
2022/08/26 08:44:49;;;;;;;14.55;9.63;;;;;;;23.46;76.27;100631.03;5089942;28;20700;-74
2022/08/26 08:47:22;;;;;;;14.60;9.05;;;;;;;23.65;76.15;100628.84;5090341;28;20231;-73
2022/08/26 08:49:49;;;;;;;15.52;9.10;;;;;;;23.84;75.65;100633.78;5091491;28;20212;-73
2022/08/26 08:52:27;;;;;;;11.65;8.68;;;;;;;24.01;74.54;100623.59;5091087;28;20665;-73
2022/08/26 08:54:55;;;;;;;15.95;9.50;;;;;;;24.20;73.73;100620.34;5091210;28;20199;-74
2022/08/26 08:57:30;;;;;;;17.55;10.43;;;;;;;24.36;72.26;100614.78;5089657;28;20223;-73
2022/08/26 09:00:05;;;;;;;16.25;10.70;;;;;;;24.53;71.16;100620.88;5091022;28;20226;-73
2022/08/26 09:02:39;;;;;;;16.52;9.95;;;;;;;24.69;71.29;100615.22;5091466;28;20222;-73
2022/08/26 09:05:10;;;;;;;17.17;10.15;;;;;;;24.86;70.39;100611.25;5089067;28;20215;-73
2022/08/26 09:07:40;;;;;;;17.75;10.90;;;;;;;25.01;69.28;100613.97;5091343;28;20285;-75
2022/08/26 09:10:27;;;;;;;16.42;10.15;;;;;;;25.16;69.06;100601.16;5091657;28;20206;-73
2022/08/26 09:12:53;;;;;;;18.50;9.88;;;;;;;25.33;69.04;100601.75;5091480;28;20253;-74
2022/08/26 09:15:25;;;;;;;21.58;10.30;;;;;;;25.52;68.84;100600.25;5089180;28;20217;-73
2022/08/26 09:18:05;;;;;;;18.48;10.50;;;;;;;25.68;67.50;100602.75;5092384;28;20224;-74
2022/08/26 09:20:44;;;;;;;15.93;10.43;;;;;;;25.81;66.94;100593.81;5092144;28;20234;-75
2022/08/26 09:23:11;;;;;;;21.88;10.48;;;;;;;25.96;65.94;100605.50;5094129;28;21053;-74
2022/08/26 09:25:46;;;;;;;17.80;9.73;;;;;;;26.11;65.42;100597.22;5097249;28;20469;-73
2022/08/26 09:28:18;;;;;;;17.67;10.25;;;;;;;26.22;65.03;100594.75;5097047;28;20226;-74
2022/08/26 09:30:53;;;;;;;22.17;9.90;;;;;;;26.34;64.30;100597.78;5094135;28;20689;-73
2022/08/26 09:33:27;;;;;;;17.20;9.52;;;;;;;26.46;63.73;100601.66;5092182;28;20210;-74
2022/08/26 09:36:12;;;;;;;22.77;9.60;;;;;;;26.59;63.74;100593.53;5095453;28;20226;-74
2022/08/26 09:38:40;;;;;;;18.40;9.07;;;;;;;26.74;62.88;100601.59;5099323;28;20219;-74
2022/08/26 09:41:20;;;;;;;22.48;10.05;;;;;;;26.90;62.02;100597.66;5094393;28;20220;-74
2022/08/26 09:44:11;;;;;;;17.27;8.80;;;;;;;27.07;61.58;100600.88;5097895;28;20208;-74
2022/08/26 09:46:42;;;;;;;17.85;9.05;;;;;;;27.21;60.60;100599.91;5089316;28;20196;-74
2022/08/26 09:49:24;;;;;;;15.40;8.98;;;;;;;27.37;60.05;100585.00;5088182;28;20211;-74
2022/08/26 09:52:05;;;;;;;14.63;8.60;;;;;;;27.49;59.34;100578.69;5090784;28;20214;-74
2022/08/26 09:54:31;;;;;;;14.65;8.05;;;;;;;27.61;58.92;100579.78;5089342;28;20569;-74
2022/08/26 09:57:14;;;;;;;22.42;8.70;;;;;;;27.76;58.42;100581.47;5092224;28;20223;-75
2022/08/26 09:59:41;;;;;;;13.52;8.20;;;;;;;27.87;57.25;100572.63;5094755;28;20301;-73
2022/08/26 10:02:29;;;;;;;11.48;8.25;;;;;;;28.01;57.32;100579.75;5100096;28;20207;-73
2022/08/26 10:04:57;;;;;;;10.88;7.00;;;;;;;28.14;57.02;100571.53;5090895;28;20197;-73
2022/08/26 10:07:37;;;;;;;15.48;7.47;;;;;;;28.24;56.38;100569.22;5097655;28;20220;-73
2022/08/26 10:10:08;;;;;;;13.73;8.45;;;;;;;28.37;55.56;100565.59;5089805;28;20199;-74
2022/08/26 10:12:38;;;;;;;15.30;6.90;;;;;;;28.46;54.51;100556.09;5094311;28;20207;-73
2022/08/26 10:15:10;;;;;;;11.48;6.75;;;;;;;28.56;54.61;100555.63;5091025;28;20390;-73
2022/08/26 10:17:43;;;;;;;11.13;7.65;;;;;;;28.66;54.05;100551.38;5089263;28;20260;-73
2022/08/26 10:20:14;;;;;;;13.00;7.18;;;;;;;28.77;53.21;100541.63;5088457;28;20255;-73
2022/08/26 10:22:47;;;;;;;12.15;7.13;;;;;;;28.90;52.58;100541.59;5086903;28;20200;-73
2022/08/26 10:25:16;;;;;;;14.45;7.43;;;;;;;29.00;52.40;100531.00;5093240;28;20208;-73
2022/08/26 10:27:48;;;;;;;11.32;6.82;;;;;;;29.12;52.15;100533.88;5094036;28;20231;-73
2022/08/26 10:30:19;;;;;;;12.70;6.72;;;;;;;29.25;51.48;100533.78;5097965;28;20200;-73
2022/08/26 10:32:51;;;;;;;13.02;7.30;;;;;;;29.35;51.69;100530.56;5093570;28;20696;-73
2022/08/26 10:35:19;;;;;;;11.77;7.10;;;;;;;29.48;51.41;100529.63;5096853;28;20214;-74
2022/08/26 10:37:52;;;;;;;8.80;6.50;;;;;;;29.55;51.35;100531.28;5096063;28;20223;-73
2022/08/26 10:40:25;;;;;;;13.25;7.07;;;;;;;29.61;50.52;100516.63;5101469;28;20466;-74
2022/08/26 10:42:57;;;;;;;11.25;6.75;;;;;;;29.64;50.97;100510.69;5099262;28;20211;-73
2022/08/26 10:45:28;;;;;;;8.95;6.57;;;;;;;29.71;50.79;100507.91;5090954;28;20206;-73
2022/08/26 10:48:02;;;;;;;10.02;7.30;;;;;;;29.78;50.89;100516.06;5097834;28;20223;-74
2022/08/26 10:50:33;;;;;;;14.05;6.68;;;;;;;29.81;50.07;100516.44;5081333;28;20580;-73
2022/08/26 10:53:07;;;;;;;14.13;5.95;;;;;;;29.84;48.97;100516.00;5088379;28;20650;-73
2022/08/26 10:55:37;;;;;;;10.48;6.05;;;;;;;29.86;48.73;100515.78;5087981;28;20202;-73
2022/08/26 10:58:28;;;;;;;13.07;6.20;;;;;;;29.91;49.48;100504.97;5087199;28;20584;-74
2022/08/26 11:03:57;;;;;;;11.85;5.82;;;;;;;30.03;48.30;100511.41;5088304;28;20428;-73
2022/08/26 11:06:26;;;;;;;10.18;5.60;;;;;;;30.10;47.70;100508.59;5082817;28;20206;-73
2022/08/26 11:08:55;;;;;;;8.20;5.70;;;;;;;30.15;46.48;100508.72;5085953;28;20223;-74
2022/08/26 11:11:52;;;;;;;9.27;5.32;;;;;;;30.19;45.82;100510.78;5084692;28;20199;-74
2022/08/26 11:14:38;;;;;;;13.18;5.85;;;;;;;30.22;45.17;100507.59;5026909;28;20317;-74
2022/08/26 11:17:10;;;;;;;9.55;5.70;;;;;;;30.28;44.86;100500.31;5087630;28;20223;-74
2022/08/26 11:20:02;;;;;;;8.60;5.32;;;;;;;30.29;44.17;100491.84;5082564;28;20662;-74
2022/08/26 11:22:31;;;;;;;11.18;5.75;;;;;;;30.32;43.42;100496.06;5084819;28;20215;-73
2022/08/26 11:25:05;;;;;;;10.32;5.53;;;;;;;30.39;43.41;100491.34;5087361;28;20202;-73
2022/08/26 11:28:02;;;;;;;12.60;5.40;;;;;;;30.43;43.24;100487.06;5088526;28;20216;-74
2022/08/26 11:30:43;;;;;;;12.80;6.07;;;;;;;30.47;43.61;100484.66;5092846;28;20196;-73
2022/08/26 11:33:11;;;;;;;14.07;6.55;;;;;;;30.50;42.63;100481.44;5080772;28;20213;-73